Time;durP1;ratioP1;P1;durP2;ratioP2;P2;SDS_P1;SDS_P2;PMS_P1;PMS_P2;Temp;Humidity;BMP_temperature;BMP_pressure;BME280_temperature;BME280_humidity;BME280_pressure;Samples;Min_cycle;Max_cycle;Signal;HPM_P1;HPM_P2
2023/07/26 00:01:06;;;;;;;0.20;0.13;;;;;;;;;;5057954;28;20029;-61
2023/07/26 00:03:32;;;;;;;0.52;0.20;;;;;;;;;;5050305;28;20765;-61
2023/07/26 00:05:58;;;;;;;0.38;0.38;;;;;;;;;;5053603;28;20071;-61
2023/07/26 00:08:24;;;;;;;0.20;0.20;;;;;;;;;;5052084;28;20045;-61
2023/07/26 00:10:50;;;;;;;0.45;0.20;;;;;;;;;;5053268;28;20041;-61
2023/07/26 00:13:16;;;;;;;0.10;0.10;;;;;;;;;;5054782;28;20055;-61
2023/07/26 00:15:42;;;;;;;0.20;0.20;;;;;;;;;;5049900;28;20080;-61
2023/07/26 00:18:09;;;;;;;0.30;0.30;;;;;;;;;;5057487;28;20052;-61
2023/07/26 00:20:35;;;;;;;0.30;0.30;;;;;;;;;;5056797;28;20053;-61
2023/07/26 00:23:02;;;;;;;0.25;0.25;;;;;;;;;;5056633;28;20033;-60
2023/07/26 00:25:28;;;;;;;0.22;0.22;;;;;;;;;;5054259;28;20072;-61
2023/07/26 00:27:54;;;;;;;0.20;0.20;;;;;;;;;;5056634;28;20055;-61
2023/07/26 00:30:20;;;;;;;0.30;0.30;;;;;;;;;;5064648;28;20434;-62
2023/07/26 00:32:46;;;;;;;0.20;0.20;;;;;;;;;;5063316;28;20036;-60
2023/07/26 00:35:22;;;;;;;0.20;0.20;;;;;;;;;;5059370;28;20449;-61
2023/07/26 00:37:49;;;;;;;0.28;0.25;;;;;;;;;;5050415;28;20048;-61
2023/07/26 00:40:15;;;;;;;2.85;0.50;;;;;;;;;;5053854;28;20441;-60
2023/07/26 00:42:41;;;;;;;0.60;0.40;;;;;;;;;;5057706;28;20407;-61
2023/07/26 00:45:07;;;;;;;0.45;0.30;;;;;;;;;;5055617;28;20043;-61
2023/07/26 00:47:33;;;;;;;0.30;0.30;;;;;;;;;;5053724;28;20055;-61
2023/07/26 00:49:59;;;;;;;0.28;0.28;;;;;;;;;;5055465;28;20041;-61
2023/07/26 00:52:25;;;;;;;0.20;0.20;;;;;;;;;;5057831;28;20057;-61
2023/07/26 00:54:55;;;;;;;0.20;0.17;;;;;;;;;;5052618;28;20053;-60
2023/07/26 00:57:21;;;;;;;0.55;0.30;;;;;;;;;;5058200;28;20044;-60
2023/07/26 00:59:47;;;;;;;1.27;0.35;;;;;;;;;;5048957;28;20044;-61
2023/07/26 01:02:13;;;;;;;0.43;0.38;;;;;;;;;;5050740;28;20056;-60
2023/07/26 01:04:39;;;;;;;0.20;0.20;;;;;;;;;;5053191;28;20137;-61
2023/07/26 01:07:11;;;;;;;0.13;0.13;;;;;;;;;;5053424;28;20048;-60
2023/07/26 01:09:51;;;;;;;0.40;0.40;;;;;;;;;;5054850;28;20045;-60
2023/07/26 01:12:23;;;;;;;0.35;0.30;;;;;;;;;;5049953;28;20044;-61
2023/07/26 01:14:52;;;;;;;0.40;0.40;;;;;;;;;;5044993;28;20110;-61
2023/07/26 01:17:18;;;;;;;0.52;0.30;;;;;;;;;;5051201;28;20045;-61
2023/07/26 01:19:45;;;;;;;0.65;0.40;;;;;;;;;;5054435;28;20037;-61
2023/07/26 01:22:11;;;;;;;0.60;0.35;;;;;;;;;;5052718;28;20132;-60
2023/07/26 01:24:37;;;;;;;0.40;0.38;;;;;;;;;;5052798;28;20037;-61
2023/07/26 01:27:03;;;;;;;0.40;0.40;;;;;;;;;;5059021;28;20415;-61
2023/07/26 01:29:29;;;;;;;0.20;0.20;;;;;;;;;;5060599;28;20052;-61
2023/07/26 01:31:55;;;;;;;0.30;0.30;;;;;;;;;;5055914;28;20033;-61
2023/07/26 01:34:21;;;;;;;0.17;0.17;;;;;;;;;;5062031;28;20502;-61
2023/07/26 01:36:48;;;;;;;0.40;0.40;;;;;;;;;;5054362;28;20055;-60
2023/07/26 01:39:14;;;;;;;0.38;0.30;;;;;;;;;;5057615;28;20406;-60
2023/07/26 01:41:40;;;;;;;0.45;0.45;;;;;;;;;;5057337;28;20401;-60
2023/07/26 01:44:06;;;;;;;0.30;0.30;;;;;;;;;;5056737;28;20596;-60
2023/07/26 01:46:32;;;;;;;0.30;0.30;;;;;;;;;;5052612;28;20045;-61
2023/07/26 01:48:58;;;;;;;0.40;0.40;;;;;;;;;;5055672;28;20032;-61
2023/07/26 01:51:24;;;;;;;0.52;0.40;;;;;;;;;;5059811;28;20106;-61
2023/07/26 01:53:50;;;;;;;0.30;0.30;;;;;;;;;;5053905;28;20086;-60
2023/07/26 01:56:16;;;;;;;0.30;0.30;;;;;;;;;;5060047;28;20045;-60
2023/07/26 01:58:42;;;;;;;0.28;0.28;;;;;;;;;;5059214;28;20131;-60
2023/07/26 02:01:08;;;;;;;0.25;0.22;;;;;;;;;;5061813;28;20062;-60
2023/07/26 02:03:35;;;;;;;0.30;0.30;;;;;;;;;;5053963;28;20033;-60
2023/07/26 02:06:01;;;;;;;0.55;0.22;;;;;;;;;;5056844;28;20045;-59
2023/07/26 02:08:27;;;;;;;0.68;0.40;;;;;;;;;;5053930;28;20044;-60
2023/07/26 02:10:53;;;;;;;0.60;0.40;;;;;;;;;;5053022;28;20080;-60
2023/07/26 02:13:19;;;;;;;0.40;0.38;;;;;;;;;;5054629;28;20125;-60
2023/07/26 02:15:46;;;;;;;0.52;0.20;;;;;;;;;;5053036;28;20041;-61
2023/07/26 02:18:13;;;;;;;0.90;0.30;;;;;;;;;;5053961;28;20575;-60
2023/07/26 02:20:39;;;;;;;0.30;0.30;;;;;;;;;;5056223;28;20036;-60
2023/07/26 02:23:05;;;;;;;0.30;0.30;;;;;;;;;;5054731;28;20054;-60
2023/07/26 02:25:31;;;;;;;0.40;0.40;;;;;;;;;;5038048;28;20044;-61
2023/07/26 02:27:57;;;;;;;0.52;0.20;;;;;;;;;;5055805;28;20132;-60
2023/07/26 02:30:23;;;;;;;0.30;0.30;;;;;;;;;;5051626;28;20123;-61
2023/07/26 02:32:49;;;;;;;0.40;0.30;;;;;;;;;;5057230;28;20045;-60
2023/07/26 02:35:15;;;;;;;0.90;0.55;;;;;;;;;;5054956;28;20043;-60
2023/07/26 02:37:41;;;;;;;0.70;0.50;;;;;;;;;;5057320;28;20151;-60
2023/07/26 02:40:08;;;;;;;0.45;0.43;;;;;;;;;;5059970;28;20072;-61
2023/07/26 02:42:34;;;;;;;0.80;0.52;;;;;;;;;;5058737;28;20051;-60
2023/07/26 02:45:00;;;;;;;0.85;0.82;;;;;;;;;;5051456;28;20036;-60
2023/07/26 02:47:26;;;;;;;0.57;0.55;;;;;;;;;;5054156;28;20124;-60
2023/07/26 02:49:52;;;;;;;0.63;0.63;;;;;;;;;;5054746;28;20045;-61
2023/07/26 02:52:18;;;;;;;1.08;0.90;;;;;;;;;;5059303;28;20114;-61
2023/07/26 02:54:44;;;;;;;0.50;0.50;;;;;;;;;;5053007;28;20045;-60
2023/07/26 02:57:10;;;;;;;0.60;0.60;;;;;;;;;;5059098;28;20033;-61
2023/07/26 02:59:36;;;;;;;0.70;0.55;;;;;;;;;;5056271;28;20041;-60
2023/07/26 03:02:02;;;;;;;0.50;0.50;;;;;;;;;;5058084;28;20040;-60
2023/07/26 03:04:28;;;;;;;0.60;0.60;;;;;;;;;;5058154;28;20033;-60
2023/07/26 03:06:54;;;;;;;1.08;0.60;;;;;;;;;;5050877;28;20034;-61
2023/07/26 03:09:20;;;;;;;0.90;0.73;;;;;;;;;;5053289;28;20040;-60
2023/07/26 03:11:46;;;;;;;0.57;0.52;;;;;;;;;;5054981;28;20143;-60
2023/07/26 03:14:12;;;;;;;0.63;0.50;;;;;;;;;;5056873;28;20502;-61
2023/07/26 03:16:38;;;;;;;0.32;0.32;;;;;;;;;;5050986;28;20132;-61
2023/07/26 03:19:04;;;;;;;0.40;0.40;;;;;;;;;;5050561;28;20442;-60
2023/07/26 03:21:30;;;;;;;1.00;0.50;;;;;;;;;;5059854;28;20044;-59
2023/07/26 03:23:56;;;;;;;0.90;0.50;;;;;;;;;;5059682;28;20041;-60
2023/07/26 03:26:22;;;;;;;0.50;0.50;;;;;;;;;;5059303;28;20042;-60
2023/07/26 03:28:48;;;;;;;0.95;0.60;;;;;;;;;;5059324;28;20118;-60
2023/07/26 03:31:14;;;;;;;0.88;0.60;;;;;;;;;;5055517;28;20048;-60
2023/07/26 03:33:40;;;;;;;0.45;0.40;;;;;;;;;;5048934;28;20074;-60
2023/07/26 03:36:06;;;;;;;0.40;0.30;;;;;;;;;;5053178;28;20041;-60
2023/07/26 03:38:32;;;;;;;0.32;0.32;;;;;;;;;;5058237;28;20076;-60
2023/07/26 03:40:58;;;;;;;0.52;0.50;;;;;;;;;;5050649;28;20068;-61
2023/07/26 03:43:24;;;;;;;0.95;0.57;;;;;;;;;;5058346;28;20120;-60
2023/07/26 03:45:50;;;;;;;0.38;0.35;;;;;;;;;;5055498;28;20053;-60
2023/07/26 03:48:16;;;;;;;0.73;0.52;;;;;;;;;;5057532;28;20043;-60
2023/07/26 03:50:42;;;;;;;0.57;0.55;;;;;;;;;;5055990;28;20040;-60
2023/07/26 03:53:08;;;;;;;0.93;0.60;;;;;;;;;;5056083;28;20423;-60
2023/07/26 03:55:34;;;;;;;1.85;0.50;;;;;;;;;;5057088;28;20049;-60
2023/07/26 03:58:00;;;;;;;0.40;0.40;;;;;;;;;;5055454;28;20044;-60
2023/07/26 04:00:26;;;;;;;0.40;0.30;;;;;;;;;;5058055;28;20033;-60
2023/07/26 04:02:52;;;;;;;0.50;0.40;;;;;;;;;;5051618;28;20049;-60
2023/07/26 04:05:18;;;;;;;0.20;0.20;;;;;;;;;;5049872;28;20516;-60
2023/07/26 04:07:44;;;;;;;0.30;0.30;;;;;;;;;;5061369;28;20044;-60
2023/07/26 04:10:10;;;;;;;0.50;0.40;;;;;;;;;;5059991;28;20036;-60
2023/07/26 04:12:36;;;;;;;0.63;0.40;;;;;;;;;;5057285;28;20075;-60
2023/07/26 04:15:03;;;;;;;0.77;0.43;;;;;;;;;;5063580;28;20044;-61
2023/07/26 04:17:29;;;;;;;0.70;0.45;;;;;;;;;;5033194;28;20043;-59
2023/07/26 04:19:55;;;;;;;0.35;0.35;;;;;;;;;;5051180;28;20564;-60
2023/07/26 04:22:21;;;;;;;0.30;0.30;;;;;;;;;;5051948;28;20036;-60
2023/07/26 04:24:47;;;;;;;0.70;0.43;;;;;;;;;;5050474;28;20044;-60
2023/07/26 04:27:13;;;;;;;0.40;0.30;;;;;;;;;;5052312;28;20083;-61
2023/07/26 04:29:39;;;;;;;0.85;0.80;;;;;;;;;;5050810;28;20120;-60
2023/07/26 04:32:06;;;;;;;0.38;0.32;;;;;;;;;;5052052;28;20500;-60
2023/07/26 04:34:32;;;;;;;0.30;0.30;;;;;;;;;;5050679;28;20123;-60
2023/07/26 04:36:58;;;;;;;0.40;0.40;;;;;;;;;;5050338;28;20161;-60
2023/07/26 04:39:24;;;;;;;0.65;0.57;;;;;;;;;;5051137;28;20120;-60
2023/07/26 04:41:50;;;;;;;1.00;0.45;;;;;;;;;;5050303;28;20044;-60
2023/07/26 04:44:16;;;;;;;0.70;0.40;;;;;;;;;;5051941;28;20036;-60
2023/07/26 04:46:42;;;;;;;0.93;0.60;;;;;;;;;;5050839;28;20047;-61
2023/07/26 04:49:08;;;;;;;0.30;0.30;;;;;;;;;;5052960;28;20119;-60
2023/07/26 04:51:34;;;;;;;0.40;0.40;;;;;;;;;;5050212;28;20048;-61
2023/07/26 04:54:00;;;;;;;0.50;0.50;;;;;;;;;;5050460;28;20098;-60
2023/07/26 04:56:26;;;;;;;0.47;0.47;;;;;;;;;;5050586;28;20118;-60
2023/07/26 04:58:52;;;;;;;0.45;0.43;;;;;;;;;;5055165;28;20541;-60
2023/07/26 05:01:19;;;;;;;0.50;0.50;;;;;;;;;;5057670;28;20740;-60
2023/07/26 05:03:45;;;;;;;0.50;0.35;;;;;;;;;;5053689;28;20128;-60
2023/07/26 05:06:11;;;;;;;0.63;0.43;;;;;;;;;;5055239;28;20040;-60
2023/07/26 05:08:38;;;;;;;0.40;0.40;;;;;;;;;;5055793;28;20071;-61
2023/07/26 05:11:05;;;;;;;0.55;0.50;;;;;;;;;;5055342;28;20450;-60
2023/07/26 05:13:31;;;;;;;0.30;0.30;;;;;;;;;;5058059;28;20079;-60
2023/07/26 05:15:57;;;;;;;0.82;0.40;;;;;;;;;;5054225;28;20286;-61
2023/07/26 05:18:23;;;;;;;1.05;0.30;;;;;;;;;;5055383;28;20045;-61
2023/07/26 05:20:52;;;;;;;0.60;0.55;;;;;;;;;;5053363;28;20102;-60
2023/07/26 05:23:19;;;;;;;0.30;0.30;;;;;;;;;;5058031;28;20036;-60
2023/07/26 05:25:45;;;;;;;0.75;0.70;;;;;;;;;;5055521;28;20055;-60
2023/07/26 05:28:11;;;;;;;0.70;0.60;;;;;;;;;;5058186;28;20087;-60
2023/07/26 05:30:41;;;;;;;0.43;0.43;;;;;;;;;;5055758;28;20112;-60
2023/07/26 05:33:08;;;;;;;0.47;0.47;;;;;;;;;;5051895;28;20036;-60
2023/07/26 05:35:34;;;;;;;0.90;0.45;;;;;;;;;;5037995;28;20113;-59
2023/07/26 05:38:00;;;;;;;0.50;0.50;;;;;;;;;;5054477;28;20403;-60
2023/07/26 05:40:26;;;;;;;0.40;0.40;;;;;;;;;;5054720;28;20074;-60
2023/07/26 05:42:52;;;;;;;0.47;0.47;;;;;;;;;;5055202;28;20086;-60
2023/07/26 05:45:18;;;;;;;0.60;0.60;;;;;;;;;;5057450;28;20044;-61
2023/07/26 05:47:44;;;;;;;0.60;0.60;;;;;;;;;;5052680;28;20049;-60
2023/07/26 05:50:10;;;;;;;0.70;0.60;;;;;;;;;;5057218;28;20148;-60
2023/07/26 05:52:37;;;;;;;0.50;0.45;;;;;;;;;;5053213;28;20128;-60
2023/07/26 05:55:03;;;;;;;0.47;0.47;;;;;;;;;;5055878;28;20937;-60
2023/07/26 05:57:30;;;;;;;0.40;0.40;;;;;;;;;;5057698;28;20029;-60
2023/07/26 05:59:56;;;;;;;0.40;0.28;;;;;;;;;;5054523;28;20052;-60
2023/07/26 06:02:22;;;;;;;0.60;0.50;;;;;;;;;;5054759;28;20437;-60
2023/07/26 06:04:48;;;;;;;0.60;0.60;;;;;;;;;;5059908;28;20044;-60
2023/07/26 06:07:15;;;;;;;0.38;0.38;;;;;;;;;;5053317;28;20037;-61
2023/07/26 06:09:41;;;;;;;0.50;0.40;;;;;;;;;;5055741;28;20410;-60
2023/07/26 06:12:07;;;;;;;0.30;0.30;;;;;;;;;;5058404;28;20048;-60
2023/07/26 06:14:33;;;;;;;0.30;0.30;;;;;;;;;;5053106;28;20041;-60
2023/07/26 06:16:59;;;;;;;0.52;0.52;;;;;;;;;;5054103;28;20105;-59
2023/07/26 06:19:25;;;;;;;0.52;0.47;;;;;;;;;;5054074;28;20046;-60
2023/07/26 06:21:55;;;;;;;1.45;0.70;;;;;;;;;;5052445;28;20041;-60
2023/07/26 06:24:22;;;;;;;0.43;0.43;;;;;;;;;;5053331;28;20091;-60
2023/07/26 06:26:48;;;;;;;1.25;0.60;;;;;;;;;;5052934;28;20041;-60
2023/07/26 06:29:14;;;;;;;0.60;0.60;;;;;;;;;;5054287;28;20368;-60
2023/07/26 06:31:40;;;;;;;0.50;0.50;;;;;;;;;;5041869;28;20048;-60
2023/07/26 06:34:06;;;;;;;1.27;0.68;;;;;;;;;;5055942;28;20053;-60
2023/07/26 06:36:32;;;;;;;0.70;0.65;;;;;;;;;;5052811;28;20379;-60
2023/07/26 06:38:58;;;;;;;0.80;0.60;;;;;;;;;;5052347;28;20080;-60
2023/07/26 06:41:24;;;;;;;1.63;0.65;;;;;;;;;;5053993;28;20040;-60
2023/07/26 06:43:50;;;;;;;0.60;0.57;;;;;;;;;;5052357;28;20037;-60
2023/07/26 06:46:16;;;;;;;1.55;0.95;;;;;;;;;;5054493;28;20053;-60
2023/07/26 06:48:42;;;;;;;1.10;0.93;;;;;;;;;;5055817;28;20056;-60
2023/07/26 06:51:09;;;;;;;1.52;0.90;;;;;;;;;;5055602;28;20036;-60
2023/07/26 06:53:35;;;;;;;1.00;0.90;;;;;;;;;;5058434;28;20049;-60
2023/07/26 06:56:01;;;;;;;1.00;0.82;;;;;;;;;;5051301;28;20045;-60
2023/07/26 06:58:27;;;;;;;0.70;0.70;;;;;;;;;;5048898;28;20418;-60
2023/07/26 07:00:54;;;;;;;1.35;0.90;;;;;;;;;;5053951;28;20060;-60
2023/07/26 07:03:20;;;;;;;2.10;1.00;;;;;;;;;;5056917;28;20052;-60
2023/07/26 07:05:46;;;;;;;1.17;1.00;;;;;;;;;;5053063;28;20044;-61
2023/07/26 07:08:13;;;;;;;1.75;1.05;;;;;;;;;;5054413;28;20036;-61
2023/07/26 07:10:39;;;;;;;1.42;1.08;;;;;;;;;;5053423;28;20036;-60
2023/07/26 07:13:05;;;;;;;0.98;0.98;;;;;;;;;;5053671;28;20044;-60
2023/07/26 07:15:31;;;;;;;1.67;1.30;;;;;;;;;;5066967;28;20516;-60
2023/07/26 07:17:57;;;;;;;2.80;1.50;;;;;;;;;;5046729;28;20091;-61
2023/07/26 07:20:23;;;;;;;1.63;1.30;;;;;;;;;;5045768;28;20041;-59
2023/07/26 07:22:52;;;;;;;1.00;0.90;;;;;;;;;;5057572;28;20490;-60
2023/07/26 07:25:18;;;;;;;1.10;1.02;;;;;;;;;;5049613;28;20066;-60
2023/07/26 07:27:44;;;;;;;3.70;1.23;;;;;;;;;;5053512;28;20485;-60
2023/07/26 07:30:10;;;;;;;0.95;0.90;;;;;;;;;;5050517;28;20620;-59
2023/07/26 07:32:39;;;;;;;0.90;0.90;;;;;;;;;;5054299;28;20124;-60
2023/07/26 07:35:06;;;;;;;1.10;1.00;;;;;;;;;;5050016;28;20045;-61
2023/07/26 07:37:32;;;;;;;0.68;0.60;;;;;;;;;;5043775;28;20044;-58
2023/07/26 07:39:58;;;;;;;1.00;0.90;;;;;;;;;;5043397;28;20120;-55
2023/07/26 07:42:24;;;;;;;1.20;1.10;;;;;;;;;;5043196;28;20514;-61
2023/07/26 07:44:50;;;;;;;1.17;0.80;;;;;;;;;;5050214;28;20036;-61
2023/07/26 07:47:16;;;;;;;0.88;0.80;;;;;;;;;;5052473;28;20064;-60
2023/07/26 07:49:42;;;;;;;1.92;0.80;;;;;;;;;;5051030;28;20048;-59
2023/07/26 07:52:09;;;;;;;0.57;0.57;;;;;;;;;;5051211;28;20154;-59
2023/07/26 07:54:35;;;;;;;0.95;0.77;;;;;;;;;;5051344;28;20092;-59
2023/07/26 07:57:01;;;;;;;0.90;0.90;;;;;;;;;;5045567;28;20048;-59
2023/07/26 07:59:27;;;;;;;0.90;0.80;;;;;;;;;;5046336;28;20624;-60
2023/07/26 08:01:52;;;;;;;1.05;0.70;;;;;;;;;;5048271;28;20045;-59
2023/07/26 08:04:19;;;;;;;0.57;0.57;;;;;;;;;;5054229;28;20048;-60
2023/07/26 08:06:45;;;;;;;0.60;0.60;;;;;;;;;;5057240;28;20040;-60
2023/07/26 08:09:11;;;;;;;0.80;0.80;;;;;;;;;;5051615;28;20073;-60
2023/07/26 08:11:37;;;;;;;0.77;0.70;;;;;;;;;;5048281;28;20045;-60
2023/07/26 08:14:04;;;;;;;1.25;1.15;;;;;;;;;;5045524;28;20078;-59
2023/07/26 08:16:30;;;;;;;2.00;0.90;;;;;;;;;;5049225;28;20135;-59
2023/07/26 08:18:57;;;;;;;0.95;0.95;;;;;;;;;;5047966;28;20055;-59
2023/07/26 08:21:23;;;;;;;1.00;0.70;;;;;;;;;;5052813;28;20044;-59
2023/07/26 08:23:50;;;;;;;0.90;0.90;;;;;;;;;;5052428;28;20039;-59
2023/07/26 08:26:16;;;;;;;1.27;0.60;;;;;;;;;;5055663;28;20047;-59
2023/07/26 08:28:42;;;;;;;0.57;0.57;;;;;;;;;;5051907;28;20044;-59
2023/07/26 08:31:09;;;;;;;1.25;1.00;;;;;;;;;;5051979;28;20037;-59
2023/07/26 08:33:35;;;;;;;0.63;0.63;;;;;;;;;;5049139;28;20040;-59
2023/07/26 08:36:01;;;;;;;1.00;1.00;;;;;;;;;;5048298;28;20059;-59
2023/07/26 08:38:27;;;;;;;1.25;1.02;;;;;;;;;;5049798;28;20379;-60
2023/07/26 08:40:54;;;;;;;0.90;0.80;;;;;;;;;;5047245;28;20098;-58
2023/07/26 08:43:23;;;;;;;0.93;0.82;;;;;;;;;;5055857;28;20437;-59
2023/07/26 08:45:50;;;;;;;1.52;1.05;;;;;;;;;;5049957;28;20045;-59
2023/07/26 08:48:17;;;;;;;1.08;0.85;;;;;;;;;;5049222;28;20537;-59
2023/07/26 08:50:43;;;;;;;0.70;0.70;;;;;;;;;;5048599;28;20052;-59
2023/07/26 08:53:09;;;;;;;0.70;0.70;;;;;;;;;;5049425;28;20590;-60
2023/07/26 08:55:37;;;;;;;1.67;1.02;;;;;;;;;;5052788;28;20049;-59
2023/07/26 08:58:04;;;;;;;1.17;1.08;;;;;;;;;;5014631;28;20052;-59
2023/07/26 09:00:31;;;;;;;1.35;0.90;;;;;;;;;;5048441;28;20553;-59
2023/07/26 09:02:58;;;;;;;1.88;1.25;;;;;;;;;;5047859;28;20033;-59
2023/07/26 09:05:24;;;;;;;1.08;1.00;;;;;;;;;;5044414;28;20040;-59
2023/07/26 09:07:51;;;;;;;5.00;1.20;;;;;;;;;;5043831;28;20087;-58
2023/07/26 09:10:27;;;;;;;1.38;0.95;;;;;;;;;;5045814;28;20406;-59
2023/07/26 09:12:54;;;;;;;1.20;1.10;;;;;;;;;;5049374;28;20052;-59
2023/07/26 09:15:21;;;;;;;0.90;0.90;;;;;;;;;;5047640;28;20068;-60
2023/07/26 09:17:47;;;;;;;1.48;0.90;;;;;;;;;;5051446;28;20035;-59
2023/07/26 09:20:28;;;;;;;1.30;1.20;;;;;;;;;;5049035;28;20048;-60
2023/07/26 09:22:59;;;;;;;1.23;1.13;;;;;;;;;;5045541;28;20052;-60
2023/07/26 09:25:45;;;;;;;1.20;1.10;;;;;;;;;;5049093;28;20041;-62
2023/07/26 09:28:12;;;;;;;1.40;1.23;;;;;;;;;;5048968;28;20387;-59
2023/07/26 09:30:40;;;;;;;1.30;1.20;;;;;;;;;;5044093;28;20525;-59
2023/07/26 09:33:07;;;;;;;1.55;0.93;;;;;;;;;;5046880;28;20076;-59
2023/07/26 09:35:42;;;;;;;0.95;0.82;;;;;;;;;;5044655;28;20053;-60
2023/07/26 09:38:11;;;;;;;1.55;1.40;;;;;;;;;;5042205;28;20045;-59
2023/07/26 09:40:37;;;;;;;1.48;1.30;;;;;;;;;;5041774;28;20037;-59
2023/07/26 09:43:03;;;;;;;1.83;1.13;;;;;;;;;;5042457;28;20052;-59
2023/07/26 09:45:30;;;;;;;1.45;1.33;;;;;;;;;;5043372;28;20041;-60
2023/07/26 09:48:07;;;;;;;1.48;1.08;;;;;;;;;;5046555;28;20094;-59
2023/07/26 09:50:35;;;;;;;1.67;1.38;;;;;;;;;;5047143;28;20041;-59
2023/07/26 09:53:02;;;;;;;1.55;1.40;;;;;;;;;;5045300;28;20418;-59
2023/07/26 09:55:28;;;;;;;2.60;1.40;;;;;;;;;;5045257;28;20076;-59
2023/07/26 09:57:55;;;;;;;2.00;1.40;;;;;;;;;;5045722;28;20124;-59
2023/07/26 10:00:26;;;;;;;1.88;1.30;;;;;;;;;;5045323;28;20123;-59
2023/07/26 10:02:57;;;;;;;0.85;0.80;;;;;;;;;;5045108;28;20044;-60
2023/07/26 10:05:25;;;;;;;1.50;1.40;;;;;;;;;;5046061;28;20398;-59
2023/07/26 10:07:52;;;;;;;1.67;1.15;;;;;;;;;;5053667;28;20130;-59
2023/07/26 10:10:19;;;;;;;0.93;0.80;;;;;;;;;;5057267;28;20076;-59
2023/07/26 10:12:46;;;;;;;0.70;0.70;;;;;;;;;;5062558;28;20102;-59
2023/07/26 10:15:16;;;;;;;0.77;0.60;;;;;;;;;;5055297;28;20036;-59
2023/07/26 10:17:43;;;;;;;1.05;0.98;;;;;;;;;;5056144;28;20494;-59
2023/07/26 10:20:10;;;;;;;1.13;0.85;;;;;;;;;;5059757;28;20083;-59
2023/07/26 10:22:36;;;;;;;1.27;1.00;;;;;;;;;;5050025;28;20083;-59
2023/07/26 10:25:03;;;;;;;0.80;0.80;;;;;;;;;;5056974;28;20423;-59
2023/07/26 10:27:29;;;;;;;0.80;0.70;;;;;;;;;;5053108;28;20029;-59
2023/07/26 10:29:55;;;;;;;1.17;1.08;;;;;;;;;;5051996;28;20126;-59
2023/07/26 10:32:21;;;;;;;1.00;0.90;;;;;;;;;;5053691;28;20068;-59
2023/07/26 10:34:54;;;;;;;1.27;1.10;;;;;;;;;;5056491;28;20520;-59
2023/07/26 10:37:20;;;;;;;2.33;0.88;;;;;;;;;;5051864;28;20159;-59
2023/07/26 10:39:48;;;;;;;0.70;0.60;;;;;;;;;;5054866;28;20041;-59
2023/07/26 10:42:22;;;;;;;0.63;0.57;;;;;;;;;;5050023;28;20048;-59
2023/07/26 10:44:49;;;;;;;2.42;1.02;;;;;;;;;;5051313;28;20048;-59
2023/07/26 10:47:15;;;;;;;1.45;1.08;;;;;;;;;;5048031;28;20560;-59
2023/07/26 10:49:46;;;;;;;1.70;0.80;;;;;;;;;;5059992;28;20045;-59
2023/07/26 10:52:12;;;;;;;0.50;0.50;;;;;;;;;;5048523;28;20076;-58
2023/07/26 10:54:43;;;;;;;0.40;0.40;;;;;;;;;;5051050;28;20040;-59
2023/07/26 10:57:17;;;;;;;0.55;0.38;;;;;;;;;;5051360;28;20037;-59
2023/07/26 11:00:06;;;;;;;0.32;0.32;;;;;;;;;;5045722;28;20366;-59
2023/07/26 11:02:43;;;;;;;0.20;0.20;;;;;;;;;;5045348;28;20045;-60
2023/07/26 11:05:22;;;;;;;0.30;0.22;;;;;;;;;;5044760;28;20049;-59
2023/07/26 11:08:04;;;;;;;0.38;0.30;;;;;;;;;;5049158;28;20560;-59
2023/07/26 11:10:30;;;;;;;0.50;0.40;;;;;;;;;;5050873;28;20033;-59
2023/07/26 11:13:13;;;;;;;0.30;0.30;;;;;;;;;;5045346;28;20041;-59
2023/07/26 11:15:43;;;;;;;0.68;0.40;;;;;;;;;;5051466;28;20048;-59
2023/07/26 11:18:09;;;;;;;0.30;0.30;;;;;;;;;;5047282;28;20083;-59
2023/07/26 11:20:54;;;;;;;0.75;0.57;;;;;;;;;;5045923;28;20041;-59
2023/07/26 11:23:20;;;;;;;0.70;0.22;;;;;;;;;;5045312;28;20047;-59
2023/07/26 11:25:48;;;;;;;0.30;0.30;;;;;;;;;;5044458;28;20036;-59
2023/07/26 11:28:14;;;;;;;0.30;0.30;;;;;;;;;;5048780;28;20048;-60
2023/07/26 11:30:42;;;;;;;0.25;0.20;;;;;;;;;;5053662;28;20036;-60
2023/07/26 11:33:09;;;;;;;0.40;0.35;;;;;;;;;;5047597;28;20064;-59
2023/07/26 11:35:42;;;;;;;0.40;0.40;;;;;;;;;;5051656;28;20048;-59
2023/07/26 11:38:08;;;;;;;0.65;0.30;;;;;;;;;;5048884;28;20601;-58
2023/07/26 11:40:40;;;;;;;0.20;0.20;;;;;;;;;;5050787;28;20068;-59
2023/07/26 11:43:07;;;;;;;0.50;0.43;;;;;;;;;;5046388;28;20483;-59
2023/07/26 11:45:33;;;;;;;0.70;0.35;;;;;;;;;;5057561;28;20041;-60
2023/07/26 11:48:00;;;;;;;0.70;0.70;;;;;;;;;;5055820;28;20039;-60
2023/07/26 11:50:26;;;;;;;1.27;0.70;;;;;;;;;;5050705;28;20045;-60
2023/07/26 11:53:03;;;;;;;1.45;0.65;;;;;;;;;;5044171;28;20052;-60
2023/07/26 11:55:29;;;;;;;0.65;0.65;;;;;;;;;;5062047;28;20421;-60
2023/07/26 11:57:55;;;;;;;1.25;0.77;;;;;;;;;;5062904;28;20040;-60
2023/07/26 12:00:21;;;;;;;0.70;0.70;;;;;;;;;;5063819;28;20057;-60
2023/07/26 12:02:47;;;;;;;0.73;0.50;;;;;;;;;;5063251;28;20045;-60
2023/07/26 12:05:18;;;;;;;0.80;0.80;;;;;;;;;;5062914;28;20414;-61
2023/07/26 12:07:49;;;;;;;0.90;0.80;;;;;;;;;;5062974;28;20044;-60
2023/07/26 12:10:17;;;;;;;0.73;0.73;;;;;;;;;;5044060;28;20044;-61
2023/07/26 12:12:43;;;;;;;1.13;0.75;;;;;;;;;;5063575;28;20040;-60
2023/07/26 12:15:12;;;;;;;1.02;0.77;;;;;;;;;;5063467;28;20044;-60
2023/07/26 12:18:05;;;;;;;0.90;0.70;;;;;;;;;;5062984;28;20075;-60
2023/07/26 12:20:31;;;;;;;0.20;0.20;;;;;;;;;;5060260;28;20048;-60
2023/07/26 12:22:59;;;;;;;0.40;0.40;;;;;;;;;;5064015;28;20040;-61
2023/07/26 12:25:36;;;;;;;0.30;0.30;;;;;;;;;;5064240;28;20037;-60
2023/07/26 12:28:02;;;;;;;0.30;0.30;;;;;;;;;;5064169;28;20068;-60
2023/07/26 12:30:28;;;;;;;0.35;0.35;;;;;;;;;;5064343;28;20048;-60
2023/07/26 12:33:15;;;;;;;0.40;0.40;;;;;;;;;;5063995;28;20054;-60
2023/07/26 12:35:45;;;;;;;0.55;0.55;;;;;;;;;;5064908;28;20057;-60
2023/07/26 12:38:17;;;;;;;0.98;0.90;;;;;;;;;;5064455;28;20052;-61
2023/07/26 12:40:44;;;;;;;1.10;0.98;;;;;;;;;;5064220;28;20580;-61
2023/07/26 12:43:19;;;;;;;1.25;1.02;;;;;;;;;;5064335;28;20056;-60
2023/07/26 12:45:45;;;;;;;1.10;1.00;;;;;;;;;;5063827;28;20040;-61
2023/07/26 12:48:12;;;;;;;1.05;0.95;;;;;;;;;;5064028;28;20063;-60
2023/07/26 12:50:42;;;;;;;0.88;0.88;;;;;;;;;;5063779;28;20044;-60
2023/07/26 12:53:09;;;;;;;1.05;0.80;;;;;;;;;;5063503;28;20052;-60
2023/07/26 12:55:35;;;;;;;1.38;1.10;;;;;;;;;;5064206;28;20048;-60
2023/07/26 12:58:01;;;;;;;0.90;0.90;;;;;;;;;;5063265;28;20044;-60
2023/07/26 13:00:27;;;;;;;1.48;1.10;;;;;;;;;;5063885;28;20601;-60
2023/07/26 13:02:53;;;;;;;0.95;0.95;;;;;;;;;;5064401;28;20402;-61
2023/07/26 13:05:19;;;;;;;1.88;1.05;;;;;;;;;;5063340;28;20043;-60
2023/07/26 13:07:52;;;;;;;1.30;1.20;;;;;;;;;;5064248;28;20250;-60
2023/07/26 13:10:18;;;;;;;1.40;1.23;;;;;;;;;;5063787;28;20052;-61
2023/07/26 13:12:44;;;;;;;1.20;0.88;;;;;;;;;;5063667;28;20068;-61
2023/07/26 13:15:10;;;;;;;1.10;0.80;;;;;;;;;;5064214;28;20041;-60
2023/07/26 13:17:36;;;;;;;1.00;0.90;;;;;;;;;;5063866;28;20044;-60
2023/07/26 13:20:03;;;;;;;1.33;0.93;;;;;;;;;;5064343;28;20045;-60
2023/07/26 13:22:29;;;;;;;1.30;1.15;;;;;;;;;;5067603;28;20040;-60
2023/07/26 13:24:55;;;;;;;1.00;0.90;;;;;;;;;;5067558;28;20036;-60
2023/07/26 13:27:24;;;;;;;0.98;0.77;;;;;;;;;;5067130;28;20040;-60
2023/07/26 13:29:50;;;;;;;1.58;1.23;;;;;;;;;;5067511;28;20160;-60
2023/07/26 13:32:17;;;;;;;1.23;1.13;;;;;;;;;;5067719;28;20036;-60
2023/07/26 13:34:43;;;;;;;1.10;0.88;;;;;;;;;;5049710;28;20172;-60
2023/07/26 13:37:09;;;;;;;1.55;1.10;;;;;;;;;;5067570;28;20051;-61
2023/07/26 13:39:35;;;;;;;1.20;0.90;;;;;;;;;;5067850;28;20304;-60
2023/07/26 13:42:02;;;;;;;2.70;1.20;;;;;;;;;;5066660;28;20044;-60
2023/07/26 13:44:28;;;;;;;1.48;1.30;;;;;;;;;;5067163;28;20044;-60
2023/07/26 13:46:54;;;;;;;1.60;1.02;;;;;;;;;;5066864;28;20048;-60
2023/07/26 13:49:20;;;;;;;1.73;1.23;;;;;;;;;;5067077;28;20105;-60
2023/07/26 13:51:46;;;;;;;1.00;0.80;;;;;;;;;;5066858;28;20067;-60
2023/07/26 13:54:12;;;;;;;0.95;0.95;;;;;;;;;;5067225;28;20067;-59
2023/07/26 13:56:38;;;;;;;1.27;1.10;;;;;;;;;;5067083;28;20044;-60
2023/07/26 13:59:05;;;;;;;0.95;0.88;;;;;;;;;;5067203;28;20051;-60
2023/07/26 14:01:31;;;;;;;1.67;1.10;;;;;;;;;;5066849;28;20044;-59
2023/07/26 14:03:57;;;;;;;1.27;0.98;;;;;;;;;;5066749;28;20072;-60
2023/07/26 14:06:27;;;;;;;1.52;0.93;;;;;;;;;;5066957;28;20052;-60
2023/07/26 14:08:53;;;;;;;1.40;0.90;;;;;;;;;;5066574;28;20037;-60
2023/07/26 14:11:19;;;;;;;2.55;1.00;;;;;;;;;;5066785;28;20398;-61
2023/07/26 14:13:46;;;;;;;0.73;0.68;;;;;;;;;;5066946;28;20344;-60
2023/07/26 14:16:12;;;;;;;1.15;0.90;;;;;;;;;;5066655;28;20047;-60
2023/07/26 14:18:38;;;;;;;0.82;0.80;;;;;;;;;;5066737;28;20044;-60
2023/07/26 14:21:04;;;;;;;0.80;0.63;;;;;;;;;;5066290;28;20444;-60
2023/07/26 14:23:31;;;;;;;1.17;1.00;;;;;;;;;;5065413;28;20375;-60
2023/07/26 14:25:57;;;;;;;0.90;0.88;;;;;;;;;;5065266;28;20091;-60
2023/07/26 14:28:23;;;;;;;2.42;1.25;;;;;;;;;;5066107;28;20051;-60
2023/07/26 14:30:49;;;;;;;1.10;1.00;;;;;;;;;;5066065;28;20051;-61
2023/07/26 14:33:16;;;;;;;0.60;0.60;;;;;;;;;;5065448;28;20123;-60
2023/07/26 14:35:42;;;;;;;0.80;0.70;;;;;;;;;;5067012;28;20048;-60
2023/07/26 14:38:08;;;;;;;1.77;0.93;;;;;;;;;;5065884;28;20044;-60
2023/07/26 14:40:34;;;;;;;1.27;1.17;;;;;;;;;;5066342;28;20482;-60
2023/07/26 14:43:00;;;;;;;1.50;1.10;;;;;;;;;;5065891;28;20048;-60